createdAt,value
2022-10-06T00:00:54.868Z,98.48
2022-10-06T00:03:23.100Z,98.56
2022-10-06T00:05:51.256Z,98.48
2022-10-06T00:08:19.098Z,98.62
2022-10-06T00:10:45.955Z,98.57
2022-10-06T00:13:12.789Z,98.52
2022-10-06T00:15:39.755Z,98.46
2022-10-06T00:18:06.921Z,98.52
2022-10-06T00:20:33.738Z,98.52
2022-10-06T00:23:00.630Z,98.71
2022-10-06T00:25:28.262Z,98.77
2022-10-06T00:27:55.501Z,98.89
2022-10-06T00:30:24.828Z,98.96
2022-10-06T00:32:57.393Z,98.85
2022-10-06T00:35:25.796Z,98.91
2022-10-06T00:37:52.948Z,98.87
2022-10-06T00:40:20.185Z,98.91
2022-10-06T00:42:59.627Z,98.83
2022-10-06T00:45:34.281Z,98.79
2022-10-06T00:48:05.715Z,98.62
2022-10-06T00:50:33.337Z,98.66
2022-10-06T00:53:00.175Z,98.63
2022-10-06T00:55:26.968Z,98.89
2022-10-06T00:57:53.908Z,99.01
2022-10-06T01:00:20.812Z,99.13
2022-10-06T01:02:57.097Z,98.99
2022-10-06T01:05:30.386Z,98.91
2022-10-06T01:07:57.995Z,98.80
2022-10-06T01:10:24.879Z,98.72
2022-10-06T01:12:52.171Z,98.62
2022-10-06T01:15:19.910Z,98.45
2022-10-06T01:18:01.133Z,98.47
2022-10-06T01:20:29.423Z,98.33
2022-10-06T01:23:00.803Z,98.20
2022-10-06T01:25:28.361Z,98.07
2022-10-06T01:27:55.993Z,97.96
2022-10-06T01:30:27.703Z,97.93
2022-10-06T01:32:54.514Z,98.06
2022-10-06T01:35:21.286Z,98.17
2022-10-06T01:37:51.769Z,98.60
2022-10-06T01:40:19.238Z,99.04
2022-10-06T01:42:46.244Z,99.00
2022-10-06T01:45:13.106Z,98.84
2022-10-06T01:47:40.031Z,100.00
2022-10-06T01:50:08.343Z,100.00
2022-10-06T01:52:35.908Z,100.00
2022-10-06T01:55:03.213Z,100.00
2022-10-06T01:57:30.232Z,99.78
2022-10-06T01:59:57.028Z,99.59
2022-10-06T02:02:24.143Z,99.66
2022-10-06T02:04:50.930Z,99.60
2022-10-06T02:07:17.782Z,99.54
2022-10-06T02:09:44.948Z,99.69
2022-10-06T02:12:11.706Z,100.00
2022-10-06T02:14:38.519Z,100.00
2022-10-06T02:17:06.593Z,100.00
2022-10-06T02:19:33.383Z,100.00
2022-10-06T02:22:00.190Z,100.00
2022-10-06T02:24:27.000Z,100.00
2022-10-06T02:26:54.071Z,100.00
2022-10-06T02:29:21.019Z,100.00
2022-10-06T02:31:49.194Z,100.00
2022-10-06T02:34:16.193Z,99.78
2022-10-06T02:36:43.039Z,99.62
2022-10-06T02:39:10.934Z,99.47
2022-10-06T02:41:37.752Z,99.32
2022-10-06T02:44:05.208Z,99.18
2022-10-06T02:46:32.477Z,99.18
2022-10-06T02:48:59.447Z,99.12
2022-10-06T02:51:26.874Z,99.27
2022-10-06T02:53:54.469Z,99.58
2022-10-06T02:56:23.383Z,99.67
2022-10-06T02:58:51.679Z,99.81
2022-10-06T03:01:21.265Z,99.97
2022-10-06T03:03:48.256Z,99.87
2022-10-06T03:06:22.720Z,99.78
2022-10-06T03:09:04.649Z,99.70
2022-10-06T03:11:34.283Z,99.60
2022-10-06T03:14:01.135Z,99.78
2022-10-06T03:16:31.042Z,99.63
2022-10-06T03:18:58.378Z,99.64
2022-10-06T03:21:27.186Z,99.62
2022-10-06T03:23:54.857Z,99.74
2022-10-06T03:26:29.245Z,99.71
2022-10-06T03:28:56.725Z,99.85
2022-10-06T03:31:29.131Z,99.92
2022-10-06T03:33:56.774Z,100.00
2022-10-06T03:36:25.451Z,100.00
2022-10-06T03:38:52.814Z,100.00
2022-10-06T03:41:21.890Z,100.00
2022-10-06T03:43:50.163Z,100.00
2022-10-06T03:46:19.874Z,100.00
2022-10-06T03:48:47.785Z,100.00
2022-10-06T03:51:19.689Z,100.00
2022-10-06T03:53:48.875Z,100.00
2022-10-06T03:56:23.242Z,100.00
2022-10-06T03:58:57.973Z,100.00
2022-10-06T04:01:27.857Z,100.00
2022-10-06T04:03:56.543Z,100.00
2022-10-06T04:06:24.572Z,100.00
2022-10-06T04:08:52.859Z,100.00
2022-10-06T04:11:25.174Z,100.00
2022-10-06T04:14:00.603Z,99.94
2022-10-06T04:16:30.019Z,99.64
2022-10-06T04:18:58.855Z,99.58
2022-10-06T04:21:27.117Z,99.35
2022-10-06T04:23:54.900Z,99.39
2022-10-06T04:26:23.138Z,99.40
2022-10-06T04:28:50.398Z,99.19
2022-10-06T04:31:25.892Z,99.10
2022-10-06T04:33:54.388Z,99.02
2022-10-06T04:36:23.885Z,99.16
2022-10-06T04:38:51.455Z,99.23
2022-10-06T04:41:20.228Z,99.23
2022-10-06T04:43:47.928Z,99.32
2022-10-06T04:46:40.764Z,99.21
2022-10-06T04:49:02.493Z,98.98
2022-10-06T04:51:29.756Z,99.04
2022-10-06T04:53:56.681Z,98.98
2022-10-06T04:56:29.648Z,99.21
2022-10-06T04:58:57.924Z,99.14
2022-10-06T05:01:27.350Z,99.32
2022-10-06T05:03:58.928Z,99.26
2022-10-06T05:06:30.866Z,100.00
2022-10-06T05:09:03.409Z,100.00
2022-10-06T05:11:31.829Z,100.00
2022-10-06T05:13:59.180Z,100.00
2022-10-06T05:16:28.352Z,100.00
2022-10-06T05:18:55.544Z,100.00
2022-10-06T05:21:27.924Z,100.00
2022-10-06T05:23:54.799Z,100.00
2022-10-06T05:26:24.010Z,100.00
2022-10-06T05:28:50.939Z,100.00
2022-10-06T05:31:29.006Z,100.00
2022-10-06T05:33:57.261Z,100.00
2022-10-06T05:36:29.865Z,99.73
2022-10-06T05:38:57.461Z,99.31
2022-10-06T05:41:26.530Z,99.45
2022-10-06T05:43:53.378Z,99.36
2022-10-06T05:46:24.963Z,99.24
2022-10-06T05:48:55.524Z,98.84
2022-10-06T05:51:30.126Z,98.16
2022-10-06T05:53:57.880Z,97.44
2022-10-06T05:56:26.780Z,96.00
2022-10-06T05:58:55.074Z,95.37
2022-10-06T06:01:28.381Z,94.20
2022-10-06T06:03:56.561Z,94.04
2022-10-06T06:06:26.210Z,94.02
2022-10-06T06:09:01.457Z,94.26
2022-10-06T06:11:31.412Z,94.50
2022-10-06T06:14:09.518Z,94.43
2022-10-06T06:16:39.149Z,93.77
2022-10-06T06:19:07.673Z,93.67
2022-10-06T06:21:34.624Z,93.82
2022-10-06T06:24:02.576Z,94.49
2022-10-06T06:26:31.655Z,94.91
2022-10-06T06:29:02.705Z,95.19
2022-10-06T06:31:39.894Z,95.26
2022-10-06T06:34:07.473Z,95.24
2022-10-06T06:36:40.840Z,95.72
2022-10-06T06:39:12.279Z,95.54
2022-10-06T06:41:41.308Z,95.68
2022-10-06T06:44:11.183Z,95.91
2022-10-06T06:46:39.114Z,95.62
2022-10-06T06:49:06.967Z,95.48
2022-10-06T06:51:35.542Z,95.66
2022-10-06T06:54:02.770Z,95.35
2022-10-06T06:56:35.047Z,95.46
2022-10-06T06:59:10.834Z,95.31
2022-10-06T07:01:39.263Z,95.09
2022-10-06T07:04:06.328Z,95.15
2022-10-06T07:06:33.295Z,95.49
2022-10-06T07:09:00.708Z,94.90
2022-10-06T07:11:32.816Z,94.95
2022-10-06T07:14:02.100Z,94.63
2022-10-06T07:16:49.444Z,94.50
2022-10-06T07:19:36.720Z,95.20
2022-10-06T07:22:34.344Z,94.89
2022-10-06T07:25:08.563Z,94.04
2022-10-06T07:27:42.240Z,93.73
2022-10-06T07:30:23.653Z,93.24
2022-10-06T07:32:51.647Z,92.67
2022-10-06T07:35:22.521Z,92.12
2022-10-06T07:37:53.169Z,91.05
2022-10-06T07:40:20.187Z,89.20
2022-10-06T07:42:52.051Z,89.13
2022-10-06T07:45:45.015Z,88.37
2022-10-06T07:48:14.489Z,87.46
2022-10-06T07:50:42.756Z,85.92
2022-10-06T07:53:10.067Z,85.32
2022-10-06T07:55:39.895Z,84.13
2022-10-06T07:58:33.525Z,83.55
2022-10-06T08:01:08.814Z,82.75
2022-10-06T08:03:37.596Z,82.18
2022-10-06T08:06:05.062Z,81.12
2022-10-06T08:08:37.940Z,80.52
2022-10-06T08:11:06.587Z,79.23
2022-10-06T08:13:35.592Z,77.44
2022-10-06T08:16:16.610Z,77.47
2022-10-06T08:18:46.849Z,77.49
2022-10-06T08:21:34.441Z,76.70
2022-10-06T08:24:02.378Z,74.92
2022-10-06T08:26:31.023Z,74.77
2022-10-06T08:29:00.379Z,75.26
2022-10-06T08:31:27.367Z,73.46
2022-10-06T08:33:56.749Z,72.40
2022-10-06T08:36:30.903Z,71.97
2022-10-06T08:38:58.718Z,70.22
2022-10-06T08:41:39.650Z,70.23
2022-10-06T08:44:13.227Z,69.21
2022-10-06T08:47:04.281Z,66.96
2022-10-06T08:49:39.821Z,66.29
2022-10-06T08:52:34.164Z,65.97
2022-10-06T08:59:06.409Z,65.50
2022-10-06T09:08:43.409Z,64.94
2022-10-06T09:11:38.135Z,66.02
2022-10-06T09:14:14.128Z,64.83
2022-10-06T09:16:42.893Z,63.62
2022-10-06T09:19:17.366Z,64.69
2022-10-06T09:21:50.311Z,64.10
2022-10-06T09:24:20.679Z,63.60
2022-10-06T09:26:49.586Z,63.35
2022-10-06T09:29:16.960Z,64.50
2022-10-06T09:31:51.031Z,64.12
2022-10-06T09:34:51.671Z,63.73
2022-10-06T09:37:18.628Z,62.88
2022-10-06T09:39:51.116Z,63.35
2022-10-06T09:42:31.166Z,63.21
2022-10-06T09:45:05.033Z,60.46
2022-10-06T09:47:42.139Z,61.33
2022-10-06T09:50:10.403Z,61.02
2022-10-06T09:52:37.721Z,61.45
2022-10-06T09:55:17.924Z,61.93
2022-10-06T09:57:49.499Z,61.37
2022-10-06T10:00:28.163Z,61.85
2022-10-06T10:03:00.217Z,61.46
2022-10-06T10:05:37.674Z,61.12
2022-10-06T10:08:22.203Z,61.20
2022-10-06T10:10:50.771Z,59.44
2022-10-06T10:13:20.549Z,58.86
2022-10-06T10:15:56.062Z,60.52
2022-10-06T10:18:26.845Z,59.93
2022-10-06T10:20:58.431Z,59.61
2022-10-06T10:23:32.847Z,59.01
2022-10-06T10:26:14.312Z,60.00
2022-10-06T10:28:57.316Z,59.59
2022-10-06T10:31:39.198Z,58.77
2022-10-06T10:34:12.669Z,58.59
2022-10-06T10:36:45.876Z,58.95
2022-10-06T10:39:37.770Z,58.61
2022-10-06T10:42:12.548Z,56.06
2022-10-06T10:44:47.395Z,58.57
2022-10-06T10:47:16.683Z,57.38
2022-10-06T10:49:48.632Z,57.24
2022-10-06T10:52:20.741Z,56.89
2022-10-06T10:55:19.691Z,56.57
2022-10-06T10:57:47.156Z,57.29
2022-10-06T11:00:22.973Z,55.95
2022-10-06T11:02:55.005Z,55.56
2022-10-06T11:05:48.232Z,55.63
2022-10-06T11:08:28.786Z,55.00
2022-10-06T11:10:58.977Z,53.98
2022-10-06T11:13:43.503Z,54.68
2022-10-06T11:16:52.803Z,54.26
2022-10-06T11:19:39.514Z,54.32
2022-10-06T11:22:15.211Z,53.15
2022-10-06T11:25:15.877Z,53.54
2022-10-06T11:27:48.655Z,52.44
2022-10-06T11:30:19.618Z,52.42
2022-10-06T11:33:26.363Z,53.37
2022-10-06T11:35:53.271Z,53.10
2022-10-06T11:38:44.417Z,53.86
2022-10-06T11:41:21.219Z,53.25
2022-10-06T11:44:12.557Z,52.03
2022-10-06T11:46:51.444Z,51.65
2022-10-06T11:49:30.778Z,50.02
2022-10-06T11:52:17.527Z,51.29
2022-10-06T11:54:51.644Z,52.67
2022-10-06T11:57:30.328Z,52.46
2022-10-06T12:00:16.244Z,52.79
2022-10-06T12:02:44.933Z,51.55
2022-10-06T12:08:01.762Z,52.78
2022-10-06T12:10:29.044Z,53.10
2022-10-06T12:13:32.402Z,53.19
2022-10-06T12:19:19.462Z,52.87
2022-10-06T12:21:57.606Z,53.01
2022-10-06T12:24:41.828Z,53.16
2022-10-06T12:27:25.922Z,53.46
2022-10-06T12:29:59.261Z,52.45
2022-10-06T12:32:37.884Z,53.82
2022-10-06T12:35:16.573Z,53.80
2022-10-06T12:37:54.543Z,53.74
2022-10-06T12:40:40.978Z,54.57
2022-10-06T12:43:17.561Z,54.27
2022-10-06T12:45:50.351Z,54.03
2022-10-06T12:48:41.636Z,54.11
2022-10-06T12:54:20.506Z,53.46
2022-10-06T12:57:13.813Z,53.14
2022-10-06T12:59:42.187Z,53.15
2022-10-06T13:02:13.071Z,52.99
2022-10-06T13:04:43.089Z,53.00
2022-10-06T13:07:30.639Z,52.73
2022-10-06T13:10:10.560Z,52.34
2022-10-06T13:12:38.379Z,51.28
2022-10-06T13:15:29.529Z,53.10
2022-10-06T13:18:18.392Z,52.90
2022-10-06T13:20:57.789Z,51.61
2022-10-06T13:23:27.645Z,52.38
2022-10-06T13:26:02.509Z,52.01
2022-10-06T13:28:31.358Z,52.26
2022-10-06T13:33:40.273Z,52.43
2022-10-06T13:36:08.618Z,52.05
2022-10-06T13:38:37.506Z,52.17
2022-10-06T13:41:14.691Z,51.84
2022-10-06T13:43:44.772Z,52.84
2022-10-06T13:46:13.959Z,52.35
2022-10-06T13:48:55.274Z,53.29
2022-10-06T13:51:25.885Z,53.09
2022-10-06T13:53:52.960Z,53.92
2022-10-06T13:59:19.900Z,55.17
2022-10-06T14:01:47.037Z,56.73
2022-10-06T14:04:20.770Z,56.20
2022-10-06T14:06:58.981Z,57.09
2022-10-06T14:09:27.782Z,57.40
2022-10-06T14:12:05.601Z,57.10
2022-10-06T14:14:33.162Z,57.39
2022-10-06T14:17:00.030Z,57.25
2022-10-06T14:19:35.891Z,56.41
2022-10-06T14:22:04.987Z,56.38
2022-10-06T14:24:34.366Z,57.38
2022-10-06T14:27:02.917Z,57.38
2022-10-06T14:29:34.277Z,58.42
2022-10-06T14:32:17.938Z,57.91
2022-10-06T14:34:45.342Z,58.60
2022-10-06T14:37:15.239Z,58.61
2022-10-06T14:39:43.214Z,59.13
2022-10-06T14:42:11.003Z,59.19
2022-10-06T14:44:38.643Z,60.43
2022-10-06T14:47:08.283Z,59.92
2022-10-06T14:49:37.720Z,59.92
2022-10-06T14:52:09.165Z,60.36
2022-10-06T14:54:36.604Z,60.66
2022-10-06T14:57:04.912Z,61.52
2022-10-06T14:59:31.981Z,61.92
2022-10-06T15:01:58.902Z,61.79
2022-10-06T15:04:27.930Z,62.80
2022-10-06T15:07:14.054Z,62.65
2022-10-06T15:09:40.975Z,62.92
2022-10-06T15:12:07.938Z,63.89
2022-10-06T15:14:39.466Z,64.29
2022-10-06T15:17:06.630Z,64.35
2022-10-06T15:19:34.310Z,65.15
2022-10-06T15:22:01.400Z,65.50
2022-10-06T15:24:28.241Z,65.61
2022-10-06T15:27:13.616Z,66.05
2022-10-06T15:29:40.525Z,66.85
2022-10-06T15:32:08.272Z,66.65
2022-10-06T15:34:37.624Z,67.14
2022-10-06T15:37:05.042Z,68.10
2022-10-06T15:39:37.801Z,67.74
2022-10-06T15:42:05.350Z,68.21
2022-10-06T15:44:34.481Z,68.45
2022-10-06T15:47:02.506Z,69.45
2022-10-06T15:49:34.490Z,69.69
2022-10-06T15:52:03.599Z,70.66
2022-10-06T15:54:39.489Z,70.46
2022-10-06T15:57:14.982Z,70.97
2022-10-06T15:59:44.932Z,71.08
2022-10-06T16:02:17.013Z,71.09
2022-10-06T16:05:09.194Z,71.65
2022-10-06T16:07:36.275Z,72.46
2022-10-06T16:10:03.444Z,72.17
2022-10-06T16:12:30.519Z,72.45
2022-10-06T16:15:01.905Z,72.80
2022-10-06T16:17:29.101Z,72.94
2022-10-06T16:19:56.597Z,73.44
2022-10-06T16:22:23.501Z,73.48
2022-10-06T16:24:50.404Z,73.68
2022-10-06T16:27:17.351Z,73.52
2022-10-06T16:29:44.189Z,73.85
2022-10-06T16:32:10.999Z,74.20
2022-10-06T16:34:39.706Z,75.03
2022-10-06T16:37:06.514Z,75.13
2022-10-06T16:39:33.385Z,77.46
2022-10-06T16:42:00.272Z,78.88
2022-10-06T16:44:27.150Z,81.72
2022-10-06T16:46:54.072Z,81.33
2022-10-06T16:49:21.210Z,82.04
2022-10-06T16:51:48.139Z,82.05
2022-10-06T16:54:17.322Z,82.23
2022-10-06T16:56:46.512Z,82.51
2022-10-06T16:59:15.876Z,83.25
2022-10-06T17:01:42.864Z,83.31
2022-10-06T17:04:11.175Z,83.75
2022-10-06T17:06:50.029Z,84.35
2022-10-06T17:09:19.475Z,83.81
2022-10-06T17:11:51.317Z,84.04
2022-10-06T17:14:21.503Z,84.71
2022-10-06T17:16:51.101Z,84.91
2022-10-06T17:19:19.615Z,85.44
2022-10-06T17:21:49.630Z,84.91
2022-10-06T17:24:19.156Z,84.61
2022-10-06T17:26:49.831Z,84.01
2022-10-06T17:29:21.133Z,84.20
2022-10-06T17:31:50.209Z,84.08
2022-10-06T17:34:21.714Z,84.02
2022-10-06T17:36:51.457Z,84.18
2022-10-06T17:39:22.095Z,84.94
2022-10-06T17:41:51.436Z,85.30
2022-10-06T17:44:23.896Z,85.16
2022-10-06T17:46:53.835Z,85.13
2022-10-06T17:49:22.233Z,85.37
2022-10-06T17:51:50.479Z,85.50
2022-10-06T17:54:20.131Z,85.83
2022-10-06T17:56:52.676Z,86.08
2022-10-06T17:59:25.185Z,86.42
2022-10-06T18:01:56.331Z,86.57
2022-10-06T18:04:23.417Z,86.77
2022-10-06T18:06:53.207Z,86.99
2022-10-06T18:09:20.767Z,87.08
2022-10-06T18:11:55.902Z,87.33
2022-10-06T18:14:30.220Z,87.71
2022-10-06T18:17:00.366Z,88.03
2022-10-06T18:19:32.400Z,88.18
2022-10-06T18:22:11.623Z,88.31
2022-10-06T18:24:38.931Z,88.35
2022-10-06T18:27:07.888Z,88.38
2022-10-06T18:29:38.162Z,88.71
2022-10-06T18:36:12.213Z,89.26
2022-10-06T18:37:41.436Z,89.54
2022-10-06T18:40:10.149Z,89.73
2022-10-06T18:42:38.113Z,89.85
2022-10-06T18:45:24.511Z,90.02
2022-10-06T18:48:10.115Z,90.12
2022-10-06T18:50:37.241Z,90.79
2022-10-06T18:53:04.389Z,91.15
2022-10-06T18:55:31.912Z,91.15
2022-10-06T18:57:59.382Z,91.18
2022-10-06T19:00:26.329Z,91.60
2022-10-06T19:02:55.485Z,91.71
2022-10-06T19:05:23.458Z,91.71
2022-10-06T19:07:53.006Z,91.71
2022-10-06T19:10:19.890Z,92.10
2022-10-06T19:12:48.224Z,92.38
2022-10-06T19:15:20.053Z,92.51
2022-10-06T19:17:48.015Z,92.66
2022-10-06T19:20:15.165Z,93.00
2022-10-06T19:22:43.440Z,93.14
2022-10-06T19:25:11.235Z,92.98
2022-10-06T19:27:38.080Z,92.79
2022-10-06T19:30:06.696Z,92.73
2022-10-06T19:32:33.845Z,92.82
2022-10-06T19:35:00.787Z,92.91
2022-10-06T19:37:29.691Z,93.04
2022-10-06T19:39:56.979Z,93.26
2022-10-06T19:42:42.271Z,93.33
2022-10-06T19:45:10.036Z,93.45
2022-10-06T19:47:36.963Z,93.53
2022-10-06T19:50:11.691Z,93.57
2022-10-06T19:52:40.153Z,93.71
2022-10-06T19:55:07.115Z,93.93
2022-10-06T19:57:34.369Z,93.90
2022-10-06T20:00:02.489Z,94.10
2022-10-06T20:02:30.694Z,94.04
2022-10-06T20:04:57.525Z,94.12
2022-10-06T20:07:27.548Z,94.51
2022-10-06T20:09:58.459Z,94.46
2022-10-06T20:12:26.918Z,94.56
2022-10-06T20:14:53.945Z,94.68
2022-10-06T20:17:21.180Z,94.63
2022-10-06T20:19:53.937Z,94.61
2022-10-06T20:22:24.242Z,94.69
2022-10-06T20:24:52.227Z,94.68
2022-10-06T20:27:19.701Z,94.74
2022-10-06T20:29:46.743Z,95.12
2022-10-06T20:32:14.186Z,96.61
2022-10-06T20:34:41.095Z,98.09
2022-10-06T20:37:08.038Z,98.06
2022-10-06T20:39:53.375Z,99.25
2022-10-06T20:42:20.978Z,100.00
2022-10-06T20:44:48.067Z,100.00
2022-10-06T20:47:16.546Z,100.00
2022-10-06T20:49:43.950Z,100.00
2022-10-06T20:52:14.431Z,99.75
2022-10-06T20:54:41.696Z,99.14
2022-10-06T20:57:09.653Z,99.13
2022-10-06T20:59:40.751Z,98.73
2022-10-06T21:02:07.680Z,98.65
2022-10-06T21:04:34.794Z,98.31
2022-10-06T21:07:05.658Z,98.03
2022-10-06T21:09:33.131Z,97.91
2022-10-06T21:12:00.297Z,98.00
2022-10-06T21:14:27.160Z,98.00
2022-10-06T21:16:54.528Z,100.00
2022-10-06T21:19:21.455Z,100.00
2022-10-06T21:21:53.663Z,100.00
2022-10-06T21:24:20.689Z,100.00
2022-10-06T21:26:48.679Z,100.00
2022-10-06T21:29:16.085Z,100.00
2022-10-06T21:31:44.625Z,100.00
2022-10-06T21:34:12.171Z,100.00
2022-10-06T21:36:38.940Z,100.00
2022-10-06T21:39:06.449Z,100.00
2022-10-06T21:41:38.545Z,100.00
2022-10-06T21:44:06.484Z,100.00
2022-10-06T21:46:41.791Z,100.00
2022-10-06T21:49:13.531Z,100.00
2022-10-06T21:51:41.667Z,100.00
2022-10-06T21:54:10.381Z,100.00
2022-10-06T21:56:37.654Z,100.00
2022-10-06T21:59:04.828Z,100.00
2022-10-06T22:01:34.200Z,100.00
2022-10-06T22:04:01.488Z,100.00
2022-10-06T22:06:32.528Z,100.00
2022-10-06T22:08:59.778Z,100.00
2022-10-06T22:11:31.996Z,100.00
2022-10-06T22:14:01.224Z,100.00
2022-10-06T22:16:30.573Z,100.00
2022-10-06T22:18:57.608Z,100.00
2022-10-06T22:21:26.707Z,99.97
2022-10-06T22:23:58.685Z,99.83
2022-10-06T22:26:26.601Z,99.88
2022-10-06T22:28:54.633Z,99.89
2022-10-06T22:31:25.733Z,99.77
2022-10-06T22:33:55.572Z,99.54
2022-10-06T22:36:22.909Z,99.68
2022-10-06T22:38:50.286Z,99.64
2022-10-06T22:41:18.452Z,99.65
2022-10-06T22:43:45.449Z,99.67
2022-10-06T22:46:12.637Z,99.58
2022-10-06T22:48:39.813Z,99.52
2022-10-06T22:51:07.150Z,99.41
2022-10-06T22:53:33.971Z,99.31
2022-10-06T22:56:01.926Z,99.38
2022-10-06T22:58:28.983Z,99.40
2022-10-06T23:00:56.194Z,99.26
2022-10-06T23:03:23.527Z,99.18
2022-10-06T23:05:58.002Z,99.09
2022-10-06T23:08:25.359Z,98.97
2022-10-06T23:10:52.439Z,98.83
2022-10-06T23:13:19.989Z,98.77
2022-10-06T23:15:46.909Z,99.01
2022-10-06T23:18:14.107Z,99.96
2022-10-06T23:20:41.006Z,100.00
2022-10-06T23:23:07.808Z,100.00
2022-10-06T23:25:38.519Z,100.00
2022-10-06T23:28:05.692Z,100.00
2022-10-06T23:30:35.105Z,100.00
2022-10-06T23:33:02.701Z,100.00
2022-10-06T23:35:29.761Z,100.00
2022-10-06T23:37:56.718Z,100.00
2022-10-06T23:40:23.794Z,99.89
2022-10-06T23:42:50.655Z,99.81
2022-10-06T23:45:17.556Z,99.72
2022-10-06T23:47:44.541Z,99.72
2022-10-06T23:50:11.674Z,99.75
2022-10-06T23:52:38.511Z,99.63
2022-10-06T23:55:05.830Z,99.64
2022-10-06T23:57:32.692Z,99.63
2022-10-06T23:59:59.806Z,99.64
